首页
METAR-TAF:

METAR-TAF

机场 :

Pitt-Greenville Airport

格林维尔, 北卡罗来纳州, 美国

纬度: 35-38N, 经度: 077-24W, 海拔: 8米

当前天气观测

该预报发布于16分钟前的10:15 UTC
风速5节,风向北转东北
温度 6°C
湿度 100%
气压 1024 hPa
能見度: 11.3公里
阴天层高于400英尺

METAR: KPGV 151015Z AUTO 02005KT 7SM RA OVC004 06/06 A3023 RMK AO2 P0004

时间: 05:31 (10:31 UTC)

预报

该预报发布于5小时和3分钟前的05:28 UTC
预报有效从15日的 06点(UTC)到 16日的 06点(UTC)
风速4节,风向北转西北
能見度: 10公里
散云层高于4000英尺
散云层高于6000英尺
从 15日的 0900点(UTC)
风速6节,风向北转东北
能見度: 9.7公里
阴天层高于700英尺
小雨
从 15日的 2100点(UTC)
风速11节,风向北转东北
能見度: 6.4公里
阴天层高于300英尺
从 16日的 0100点(UTC)
风速12节,风向北转东北
能見度: 8.0公里
阴天层高于1000英尺
小阵雨

TAF: KPGV 150528Z 1506/1606 34004KT P6SM SCT040 SCT060 FM150900 02006KT 6SM -RA OVC007 FM152100 03011KT 4SM RA OVC003 FM160100 02012KT 5SM -SHRA OVC010 AMD LTD TO CLD VIS AND WIND

超过4000个机场的气象观测和天气预报(METAR&TAF报告)。

可查询的气象台以黄色和红色小点在地图上表示。

将鼠标移到小点上方,可查看气象台名称。

然后点击查看天气观测和预报。

如需切换地图:点击带黑十字的绿色按钮放大地图;点击带横线的绿色按钮缩小地图;或者点击绿色箭头查看邻近地区的地图。


METAR-TAF: